createdAt,value
2019-05-20T00:03:17.714Z,15.87
2019-05-20T00:06:40.878Z,16.08
2019-05-20T00:10:05.096Z,15.86
2019-05-20T00:13:28.609Z,16.10
2019-05-20T00:16:51.702Z,15.96
2019-05-20T00:20:14.787Z,15.98
2019-05-20T00:23:37.845Z,15.90
2019-05-20T00:27:01.077Z,15.98
2019-05-20T00:30:24.231Z,16.08
2019-05-20T00:33:47.642Z,16.20
2019-05-20T00:37:12.279Z,16.25
2019-05-20T00:40:35.426Z,16.07
2019-05-20T00:43:58.839Z,16.09
2019-05-20T00:47:21.908Z,15.94
2019-05-20T00:50:45.002Z,15.95
2019-05-20T00:54:08.296Z,16.09
2019-05-20T00:57:31.682Z,15.78
2019-05-20T01:00:54.761Z,15.98
2019-05-20T01:04:17.865Z,15.78
2019-05-20T01:07:41.276Z,15.81
2019-05-20T01:11:04.371Z,15.78
2019-05-20T01:14:27.560Z,15.80
2019-05-20T01:17:50.950Z,15.94
2019-05-20T01:21:14.060Z,15.74
2019-05-20T01:24:37.143Z,16.17
2019-05-20T01:28:00.619Z,16.13
2019-05-20T01:31:23.786Z,16.23
2019-05-20T01:34:46.983Z,16.17
2019-05-20T01:38:10.397Z,16.02
2019-05-20T01:41:34.671Z,16.38
2019-05-20T01:44:57.728Z,16.32
2019-05-20T01:48:21.827Z,16.51
2019-05-20T01:52:18.201Z,16.68
2019-05-20T01:55:41.310Z,16.62
2019-05-20T01:59:04.431Z,16.61
2019-05-20T02:02:27.648Z,16.70
2019-05-20T02:05:51.054Z,16.64
2019-05-20T02:09:15.389Z,16.63
2019-05-20T02:12:38.466Z,16.64
2019-05-20T02:16:05.534Z,16.69
2019-05-20T02:19:28.758Z,16.64
2019-05-20T02:22:54.227Z,16.73
2019-05-20T02:26:17.336Z,16.81
2019-05-20T02:29:40.452Z,16.88
2019-05-20T02:33:03.706Z,16.90
2019-05-20T02:36:26.792Z,17.09
2019-05-20T02:39:49.958Z,17.17
2019-05-20T02:43:13.048Z,16.98
2019-05-20T02:46:36.263Z,16.97
2019-05-20T02:49:59.400Z,17.14
2019-05-20T02:53:22.507Z,17.14
2019-05-20T02:56:45.690Z,17.09
2019-05-20T03:00:09.178Z,17.10
2019-05-20T03:03:32.247Z,17.05
2019-05-20T03:06:55.349Z,16.95
2019-05-20T03:10:18.424Z,17.07
2019-05-20T03:13:41.522Z,17.21
2019-05-20T03:17:04.666Z,17.08
2019-05-20T03:20:27.781Z,17.13
2019-05-20T03:23:50.865Z,17.08
2019-05-20T03:27:13.956Z,17.15
2019-05-20T03:30:38.044Z,17.10
2019-05-20T03:34:01.195Z,17.17
2019-05-20T03:37:24.425Z,17.04
2019-05-20T03:40:47.710Z,17.12
2019-05-20T03:44:10.855Z,17.12
2019-05-20T03:47:33.961Z,17.18
2019-05-20T03:50:57.123Z,17.21
2019-05-20T03:54:20.237Z,17.17
2019-05-20T03:57:43.371Z,17.07
2019-05-20T04:01:06.468Z,17.16
2019-05-20T04:04:29.555Z,17.19
2019-05-20T04:07:52.709Z,17.13
2019-05-20T04:11:16.051Z,17.28
2019-05-20T04:14:39.232Z,17.39
2019-05-20T04:18:02.741Z,17.21
2019-05-20T04:21:26.302Z,17.17
2019-05-20T04:24:49.575Z,17.13
2019-05-20T04:28:12.800Z,17.13
2019-05-20T04:31:36.240Z,17.15
2019-05-20T04:35:19.812Z,17.16
2019-05-20T04:38:26.084Z,17.48
2019-05-20T04:41:49.383Z,17.56
2019-05-20T04:45:13.077Z,17.42
2019-05-20T04:48:36.234Z,17.24
2019-05-20T04:51:59.390Z,17.36
2019-05-20T04:55:22.574Z,16.94
2019-05-20T04:58:45.665Z,17.38
2019-05-20T05:02:08.987Z,17.18
2019-05-20T05:05:37.615Z,17.33
2019-05-20T05:08:57.004Z,17.41
2019-05-20T05:12:33.731Z,17.62
2019-05-20T05:15:57.334Z,17.46
2019-05-20T05:19:20.768Z,17.03
2019-05-20T05:22:44.009Z,17.55
2019-05-20T05:26:07.086Z,17.17
2019-05-20T05:29:33.088Z,17.45
2019-05-20T05:32:59.877Z,17.70
2019-05-20T05:36:23.025Z,17.51
2019-05-20T05:39:46.404Z,17.43
2019-05-20T05:43:09.590Z,17.60
2019-05-20T05:46:32.635Z,17.55
2019-05-20T05:49:55.763Z,17.43
2019-05-20T05:53:18.936Z,17.72
2019-05-20T05:56:42.055Z,17.69
2019-05-20T06:00:10.213Z,17.67
2019-05-20T06:03:33.617Z,17.88
2019-05-20T06:06:56.876Z,17.96
2019-05-20T06:10:21.540Z,17.66
2019-05-20T06:13:44.588Z,18.05
2019-05-20T06:17:07.645Z,17.95
2019-05-20T06:20:30.745Z,18.01
2019-05-20T06:23:54.328Z,17.75
2019-05-20T06:27:17.776Z,17.71
2019-05-20T06:30:43.998Z,17.87
2019-05-20T06:34:07.157Z,17.45
2019-05-20T06:37:34.340Z,17.79
2019-05-20T06:40:57.570Z,18.17
2019-05-20T06:44:20.897Z,17.86
2019-05-20T06:47:45.036Z,17.86
2019-05-20T06:51:08.294Z,17.81
2019-05-20T06:54:34.677Z,17.93
2019-05-20T06:57:57.909Z,18.27
2019-05-20T07:01:21.085Z,18.41
2019-05-20T07:04:44.334Z,18.36
2019-05-20T07:08:08.123Z,18.18
2019-05-20T07:11:31.529Z,18.37
2019-05-20T07:14:54.794Z,18.30
2019-05-20T07:18:18.070Z,18.56
2019-05-20T07:21:41.704Z,18.48
2019-05-20T07:25:05.171Z,18.30
2019-05-20T07:28:28.607Z,18.17
2019-05-20T07:31:51.785Z,18.43
2019-05-20T07:35:28.887Z,18.58
2019-05-20T07:38:40.389Z,18.71
2019-05-20T07:42:04.829Z,18.54
2019-05-20T07:45:30.326Z,18.34
2019-05-20T07:48:53.710Z,18.38
2019-05-20T07:52:18.130Z,18.10
2019-05-20T07:55:53.714Z,17.91
2019-05-20T07:59:21.688Z,17.92
2019-05-20T08:02:44.728Z,18.43
2019-05-20T08:06:08.330Z,18.45
2019-05-20T08:09:31.460Z,18.78
2019-05-20T08:12:54.507Z,18.97
2019-05-20T08:16:18.670Z,18.52
2019-05-20T08:19:41.983Z,18.63
2019-05-20T08:23:05.242Z,18.66
2019-05-20T08:26:28.454Z,18.49
2019-05-20T08:29:51.785Z,18.28
2019-05-20T08:33:14.805Z,18.34
2019-05-20T08:36:38.090Z,18.26
2019-05-20T08:40:01.415Z,18.76
2019-05-20T08:43:24.875Z,18.53
2019-05-20T08:46:48.127Z,18.59
2019-05-20T08:50:15.916Z,18.56
2019-05-20T08:53:36.220Z,18.82
2019-05-20T08:56:59.285Z,18.87
2019-05-20T09:00:24.667Z,19.14
2019-05-20T09:03:48.198Z,19.22
2019-05-20T09:07:11.422Z,19.34
2019-05-20T09:10:35.184Z,19.30
2019-05-20T09:13:58.215Z,19.52
2019-05-20T09:17:21.507Z,19.54
2019-05-20T09:20:44.884Z,19.48
2019-05-20T09:24:07.973Z,19.47
2019-05-20T09:27:31.282Z,19.56
2019-05-20T09:30:56.636Z,19.88
2019-05-20T09:34:19.898Z,19.48
2019-05-20T09:37:43.063Z,19.67
2019-05-20T09:41:06.487Z,19.77
2019-05-20T09:44:29.725Z,20.04
2019-05-20T09:47:53.125Z,19.69
2019-05-20T09:51:16.486Z,19.82
2019-05-20T09:54:39.798Z,19.08
2019-05-20T09:58:03.134Z,19.16
2019-05-20T10:01:26.380Z,19.50
2019-05-20T10:04:49.555Z,19.81
2019-05-20T10:08:12.680Z,19.94
2019-05-20T10:11:35.872Z,19.78
2019-05-20T10:14:59.258Z,19.47
2019-05-20T10:18:36.901Z,19.98
2019-05-20T10:21:47.478Z,19.96
2019-05-20T10:25:11.168Z,20.28
2019-05-20T10:28:34.240Z,20.25
2019-05-20T10:31:57.364Z,20.19
2019-05-20T10:35:20.678Z,19.77
2019-05-20T10:38:58.048Z,19.49
2019-05-20T10:42:09.384Z,19.83
2019-05-20T10:45:33.661Z,19.97
2019-05-20T10:48:57.049Z,19.55
2019-05-20T10:52:20.543Z,19.78
2019-05-20T10:55:43.901Z,19.91
2019-05-20T10:59:11.760Z,19.93
2019-05-20T11:02:32.192Z,19.67
2019-05-20T11:05:55.321Z,19.53
2019-05-20T11:09:18.662Z,19.71
2019-05-20T11:12:44.688Z,19.88
2019-05-20T11:16:08.644Z,19.27
2019-05-20T11:19:31.886Z,19.34
2019-05-20T11:22:54.983Z,19.50
2019-05-20T11:26:18.942Z,19.61
2019-05-20T11:29:42.346Z,19.16
2019-05-20T11:33:05.481Z,19.53
2019-05-20T11:36:28.712Z,19.49
2019-05-20T11:39:52.179Z,19.00
2019-05-20T11:43:15.310Z,19.12
2019-05-20T11:46:38.555Z,19.35
2019-05-20T11:50:01.715Z,19.68
2019-05-20T11:53:25.012Z,19.24
2019-05-20T11:56:48.193Z,19.46
2019-05-20T12:00:11.785Z,19.73
2019-05-20T12:03:34.905Z,19.50
2019-05-20T12:06:58.077Z,19.83
2019-05-20T12:10:23.196Z,20.11
2019-05-20T12:13:46.279Z,20.40
2019-05-20T12:17:09.362Z,20.01
2019-05-20T12:20:32.491Z,20.39
2019-05-20T12:23:55.858Z,20.73
2019-05-20T12:27:19.092Z,20.96
2019-05-20T12:30:42.493Z,20.39
2019-05-20T12:34:05.639Z,20.42
2019-05-20T12:37:29.194Z,20.64
2019-05-20T12:40:53.471Z,20.97
2019-05-20T12:44:16.598Z,20.83
2019-05-20T12:47:42.488Z,20.84
2019-05-20T12:51:05.661Z,20.71
2019-05-20T12:54:28.731Z,20.47
2019-05-20T12:57:51.814Z,20.41
2019-05-20T13:01:14.924Z,19.99
2019-05-20T13:04:38.021Z,20.53
2019-05-20T13:08:01.225Z,20.51
2019-05-20T13:11:24.377Z,20.69
2019-05-20T13:14:47.554Z,20.89
2019-05-20T13:18:10.774Z,20.86
2019-05-20T13:21:34.038Z,20.95
2019-05-20T13:24:57.212Z,20.76
2019-05-20T13:28:20.604Z,21.01
2019-05-20T13:31:43.726Z,20.04
2019-05-20T13:35:07.000Z,19.77
2019-05-20T13:38:31.385Z,19.96
2019-05-20T13:41:54.617Z,20.30
2019-05-20T13:45:17.872Z,20.55
2019-05-20T13:48:41.075Z,20.86
2019-05-20T13:52:04.243Z,20.59
2019-05-20T13:55:33.233Z,20.01
2019-05-20T13:58:56.541Z,20.28
2019-05-20T14:02:19.682Z,20.11
2019-05-20T14:05:42.976Z,19.47
2019-05-20T14:09:07.585Z,19.81
2019-05-20T14:12:31.238Z,20.17
2019-05-20T14:15:54.621Z,20.33
2019-05-20T14:19:17.716Z,20.27
2019-05-20T14:22:40.937Z,20.42
2019-05-20T14:26:04.142Z,20.06
2019-05-20T14:29:27.368Z,20.00
2019-05-20T14:32:50.785Z,20.60
2019-05-20T14:36:37.262Z,20.94
2019-05-20T14:39:38.997Z,20.89
2019-05-20T14:43:02.286Z,20.41
2019-05-20T14:46:25.480Z,20.76
2019-05-20T14:49:48.614Z,20.94
2019-05-20T14:53:11.715Z,20.28
2019-05-20T14:56:34.792Z,20.07
2019-05-20T14:59:57.916Z,20.31
2019-05-20T15:03:21.283Z,20.16
2019-05-20T15:06:44.528Z,20.48
2019-05-20T15:10:08.369Z,20.09
2019-05-20T15:13:32.476Z,20.35
2019-05-20T15:16:55.851Z,19.82
2019-05-20T15:20:19.210Z,19.82
2019-05-20T15:23:42.382Z,19.90
2019-05-20T15:27:05.565Z,19.68
2019-05-20T15:30:28.689Z,19.69
2019-05-20T15:33:51.850Z,19.85
2019-05-20T15:37:15.174Z,19.44
2019-05-20T15:40:38.373Z,19.73
2019-05-20T15:44:01.478Z,20.19
2019-05-20T15:47:24.735Z,19.85
2019-05-20T15:50:47.817Z,20.20
2019-05-20T15:54:10.961Z,19.90
2019-05-20T15:57:34.036Z,20.14
2019-05-20T16:00:57.096Z,19.92
2019-05-20T16:04:20.273Z,20.32
2019-05-20T16:07:43.421Z,20.32
2019-05-20T16:11:07.248Z,20.31
2019-05-20T16:14:30.557Z,20.46
2019-05-20T16:17:53.769Z,20.09
2019-05-20T16:21:16.936Z,20.30
2019-05-20T16:24:40.833Z,20.39
2019-05-20T16:28:04.272Z,20.41
2019-05-20T16:31:28.013Z,20.65
2019-05-20T16:34:51.156Z,20.44
2019-05-20T16:38:14.420Z,20.17
2019-05-20T16:41:37.515Z,20.37
2019-05-20T16:45:00.740Z,20.69
2019-05-20T16:48:24.624Z,20.20
2019-05-20T16:51:47.786Z,20.36
2019-05-20T16:55:10.996Z,20.26
2019-05-20T16:58:34.283Z,20.24
2019-05-20T17:01:57.335Z,20.68
2019-05-20T17:05:20.822Z,21.02
2019-05-20T17:08:44.016Z,20.54
2019-05-20T17:12:07.145Z,20.33
2019-05-20T17:15:30.299Z,20.17
2019-05-20T17:19:28.796Z,20.14
2019-05-20T17:22:52.974Z,20.11
2019-05-20T17:26:16.170Z,19.83
2019-05-20T17:29:39.411Z,19.98
2019-05-20T17:33:04.689Z,19.96
2019-05-20T17:36:27.914Z,19.88
2019-05-20T17:39:51.063Z,19.48
2019-05-20T17:43:14.299Z,19.64
2019-05-20T17:46:37.519Z,19.60
2019-05-20T17:50:01.196Z,19.79
2019-05-20T17:53:24.417Z,19.57
2019-05-20T17:56:47.873Z,19.86
2019-05-20T18:00:16.863Z,19.54
2019-05-20T18:03:40.394Z,19.68
2019-05-20T18:07:03.596Z,19.03
2019-05-20T18:10:26.906Z,19.11
2019-05-20T18:13:51.281Z,19.24
2019-05-20T18:17:14.836Z,19.18
2019-05-20T18:20:38.911Z,19.43
2019-05-20T18:24:02.532Z,19.20
2019-05-20T18:27:26.375Z,19.34
2019-05-20T18:30:49.529Z,19.25
2019-05-20T18:34:13.808Z,19.13
2019-05-20T18:37:37.289Z,19.07
2019-05-20T18:41:00.927Z,19.32
2019-05-20T18:44:24.109Z,19.11
2019-05-20T18:47:47.362Z,19.06
2019-05-20T18:51:10.720Z,19.07
2019-05-20T18:54:34.561Z,18.77
2019-05-20T18:57:57.638Z,18.56
2019-05-20T19:01:21.657Z,18.46
2019-05-20T19:04:46.539Z,18.76
2019-05-20T19:08:09.749Z,18.67
2019-05-20T19:11:33.797Z,18.70
2019-05-20T19:14:58.160Z,18.82
2019-05-20T19:18:22.061Z,18.68
2019-05-20T19:21:52.048Z,18.35
2019-05-20T19:25:15.508Z,18.51
2019-05-20T19:28:38.925Z,18.70
2019-05-20T19:32:02.510Z,18.62
2019-05-20T19:35:26.933Z,18.37
2019-05-20T19:38:50.317Z,18.41
2019-05-20T19:42:13.994Z,18.36
2019-05-20T19:45:37.703Z,18.18
2019-05-20T19:49:01.013Z,18.19
2019-05-20T19:52:24.260Z,18.37
2019-05-20T19:55:47.548Z,18.43
2019-05-20T19:59:10.861Z,18.57
2019-05-20T20:02:34.591Z,18.38
2019-05-20T20:06:01.317Z,18.49
2019-05-20T20:09:26.239Z,18.48
2019-05-20T20:12:53.413Z,18.13
2019-05-20T20:16:18.086Z,18.27
2019-05-20T20:19:41.850Z,18.50
2019-05-20T20:23:05.396Z,18.48
2019-05-20T20:26:28.869Z,18.48
2019-05-20T20:29:51.945Z,18.35
2019-05-20T20:33:15.058Z,18.26
2019-05-20T20:36:38.527Z,18.33
2019-05-20T20:40:01.624Z,18.28
2019-05-20T20:43:24.855Z,18.17
2019-05-20T20:46:48.141Z,18.12
2019-05-20T20:50:11.930Z,18.11
2019-05-20T20:53:34.959Z,18.22
2019-05-20T20:56:58.114Z,18.28
2019-05-20T21:00:21.616Z,18.00
2019-05-20T21:03:44.703Z,18.19
2019-05-20T21:07:08.791Z,18.18
2019-05-20T21:10:31.965Z,18.25
2019-05-20T21:13:55.139Z,18.10
2019-05-20T21:17:18.408Z,18.22
2019-05-20T21:20:41.921Z,18.20
2019-05-20T21:24:04.987Z,18.22
2019-05-20T21:27:28.189Z,18.07
2019-05-20T21:30:51.567Z,17.97
2019-05-20T21:34:14.712Z,17.94
2019-05-20T21:37:37.874Z,17.82
2019-05-20T21:41:01.037Z,17.86
2019-05-20T21:44:24.155Z,17.54
2019-05-20T21:47:47.422Z,17.89
2019-05-20T21:51:10.786Z,17.81
2019-05-20T21:54:33.939Z,17.89
2019-05-20T21:57:57.187Z,18.05
2019-05-20T22:01:20.406Z,18.06
2019-05-20T22:04:43.956Z,17.86
2019-05-20T22:08:07.411Z,17.86
2019-05-20T22:11:30.583Z,17.65
2019-05-20T22:14:53.864Z,17.67
2019-05-20T22:18:17.028Z,17.59
2019-05-20T22:21:47.094Z,17.74
2019-05-20T22:25:10.291Z,17.77
2019-05-20T22:28:33.498Z,17.57
2019-05-20T22:31:56.605Z,17.53
2019-05-20T22:35:19.777Z,17.59
2019-05-20T22:38:42.902Z,17.50
2019-05-20T22:42:06.230Z,17.48
2019-05-20T22:45:29.447Z,17.49
2019-05-20T22:48:52.572Z,17.52
2019-05-20T22:52:15.680Z,17.24
2019-05-20T22:55:38.786Z,17.14
2019-05-20T22:59:01.943Z,17.09
2019-05-20T23:02:25.065Z,16.85
2019-05-20T23:05:48.173Z,16.84
2019-05-20T23:09:14.798Z,16.86
2019-05-20T23:12:36.664Z,16.80
2019-05-20T23:15:59.879Z,16.71
2019-05-20T23:19:22.980Z,16.79
2019-05-20T23:22:46.103Z,16.61
2019-05-20T23:26:09.220Z,16.61
2019-05-20T23:29:32.308Z,16.73
2019-05-20T23:32:55.446Z,16.69
2019-05-20T23:36:18.527Z,16.77
2019-05-20T23:39:41.903Z,16.71
2019-05-20T23:44:14.488Z,16.66
2019-05-20T23:52:37.699Z,16.60
2019-05-20T23:56:00.842Z,16.60
2019-05-20T23:59:23.940Z,16.51
